createdAt,value
2023-03-01T00:01:39.452Z,8.27
2023-03-01T00:04:40.824Z,7.80
2023-03-01T00:07:42.213Z,8.70
2023-03-01T00:10:43.700Z,8.90
2023-03-01T00:13:46.839Z,8.17
2023-03-01T00:16:48.288Z,8.53
2023-03-01T00:19:50.898Z,8.97
2023-03-01T00:22:52.301Z,8.67
2023-03-01T00:25:54.728Z,8.50
2023-03-01T00:28:58.794Z,8.80
2023-03-01T00:32:00.402Z,9.00
2023-03-01T00:35:01.845Z,8.27
2023-03-01T00:38:04.826Z,9.27
2023-03-01T00:41:11.135Z,9.30
2023-03-01T00:44:12.597Z,9.30
2023-03-01T00:47:14.851Z,8.47
2023-03-01T00:50:16.611Z,8.70
2023-03-01T00:53:18.005Z,9.37
2023-03-01T00:56:20.815Z,9.77
2023-03-01T00:59:22.234Z,9.37
2023-03-01T01:02:23.773Z,8.73
2023-03-01T01:05:25.168Z,9.13
2023-03-01T01:08:28.358Z,10.20
2023-03-01T01:11:30.782Z,9.53
2023-03-01T01:14:32.522Z,11.40
2023-03-01T01:17:33.923Z,10.00
2023-03-01T01:20:37.299Z,9.33
2023-03-01T01:23:40.768Z,8.83
2023-03-01T01:26:43.170Z,9.63
2023-03-01T01:29:44.665Z,9.60
2023-03-01T01:32:46.098Z,10.23
2023-03-01T01:35:47.600Z,9.97
2023-03-01T01:38:49.243Z,10.10
2023-03-01T01:41:51.081Z,9.80
2023-03-01T01:45:28.492Z,10.13
2023-03-01T01:48:42.495Z,10.60
2023-03-01T01:51:49.113Z,9.73
2023-03-01T01:55:01.713Z,10.10
2023-03-01T01:58:07.328Z,10.47
2023-03-01T02:01:08.965Z,9.93
2023-03-01T02:04:10.757Z,10.53
2023-03-01T02:07:17.912Z,10.40
2023-03-01T02:10:20.007Z,9.87
2023-03-01T02:13:21.400Z,10.23
2023-03-01T02:16:23.003Z,11.07
2023-03-01T02:19:35.246Z,10.57
2023-03-01T02:22:39.168Z,10.63
2023-03-01T02:26:02.197Z,10.13
2023-03-01T02:29:04.057Z,11.43
2023-03-01T02:32:06.236Z,10.33
2023-03-01T02:35:10.033Z,10.60
2023-03-01T02:38:11.411Z,10.53
2023-03-01T02:41:16.238Z,10.67
2023-03-01T02:44:18.220Z,10.40
2023-03-01T02:47:19.642Z,10.97
2023-03-01T02:50:30.843Z,10.67
2023-03-01T02:54:14.307Z,11.27
2023-03-01T02:57:16.475Z,10.17
2023-03-01T03:00:23.489Z,10.70
2023-03-01T03:03:25.068Z,10.70
2023-03-01T03:06:26.539Z,10.67
2023-03-01T03:09:29.367Z,10.73
2023-03-01T03:12:31.740Z,11.00
2023-03-01T03:15:36.833Z,11.00
2023-03-01T03:18:38.221Z,10.97
2023-03-01T03:21:39.904Z,11.27
2023-03-01T03:24:41.308Z,12.13
2023-03-01T03:27:44.982Z,11.60
2023-03-01T03:30:47.620Z,11.00
2023-03-01T03:33:49.043Z,11.40
2023-03-01T03:37:00.280Z,11.23
2023-03-01T03:40:01.754Z,10.63
2023-03-01T03:43:04.822Z,11.40
2023-03-01T03:46:07.197Z,11.37
2023-03-01T03:49:08.675Z,11.60
2023-03-01T03:52:14.269Z,12.10
2023-03-01T03:55:20.083Z,11.50
2023-03-01T03:58:25.016Z,11.63
2023-03-01T04:01:26.547Z,11.60
2023-03-01T04:04:27.946Z,11.77
2023-03-01T04:07:29.318Z,12.17
2023-03-01T04:10:33.602Z,11.17
2023-03-01T04:13:35.025Z,11.73
2023-03-01T04:16:36.578Z,11.30
2023-03-01T04:19:37.964Z,11.13
2023-03-01T04:22:40.960Z,11.57
2023-03-01T04:25:55.232Z,12.03
2023-03-01T04:28:56.662Z,11.67
2023-03-01T04:31:58.118Z,11.37
2023-03-01T04:34:59.562Z,13.03
2023-03-01T04:38:01.048Z,11.57
2023-03-01T04:41:04.321Z,11.00
2023-03-01T04:44:06.626Z,11.37
2023-03-01T04:47:08.052Z,12.20
2023-03-01T04:50:11.669Z,12.30
2023-03-01T04:53:13.103Z,11.80
2023-03-01T04:56:15.354Z,11.80
2023-03-01T04:59:16.725Z,12.17
2023-03-01T05:02:18.128Z,11.70
2023-03-01T05:05:22.597Z,11.47
2023-03-01T05:08:23.972Z,11.67
2023-03-01T05:11:25.443Z,11.03
2023-03-01T05:14:26.832Z,10.53
2023-03-01T05:17:28.212Z,12.17
2023-03-01T05:20:30.863Z,11.43
2023-03-01T05:23:33.578Z,10.80
2023-03-01T05:26:34.959Z,11.80
2023-03-01T05:29:36.340Z,11.37
2023-03-01T05:32:37.720Z,11.20
2023-03-01T05:35:39.166Z,11.47
2023-03-01T05:38:40.558Z,11.60
2023-03-01T05:41:42.018Z,11.77
2023-03-01T05:44:43.423Z,12.17
2023-03-01T05:47:46.913Z,12.53
2023-03-01T05:50:48.490Z,13.00
2023-03-01T05:53:49.929Z,12.60
2023-03-01T05:56:51.336Z,13.03
2023-03-01T05:59:52.728Z,12.93
2023-03-01T06:02:55.425Z,12.90
2023-03-01T06:05:58.349Z,13.00
2023-03-01T06:08:59.814Z,14.57
2023-03-01T06:12:01.185Z,13.87
2023-03-01T06:15:03.020Z,15.53
2023-03-01T06:18:04.433Z,15.10
2023-03-01T06:21:07.643Z,14.13
2023-03-01T06:24:09.322Z,14.70
2023-03-01T06:27:10.734Z,14.10
2023-03-01T06:30:19.326Z,14.57
2023-03-01T06:33:25.242Z,14.00
2023-03-01T06:36:26.635Z,14.20
2023-03-01T06:39:28.994Z,13.43
2023-03-01T06:42:30.450Z,12.87
2023-03-01T06:45:31.860Z,13.53
2023-03-01T06:48:34.652Z,13.60
2023-03-01T06:51:37.696Z,14.13
2023-03-01T06:54:39.326Z,17.60
2023-03-01T06:57:40.686Z,13.87
2023-03-01T07:00:43.900Z,14.27
2023-03-01T07:03:45.345Z,14.83
2023-03-01T07:06:46.787Z,13.17
2023-03-01T07:09:49.920Z,12.77
2023-03-01T07:12:51.507Z,13.37
2023-03-01T07:15:53.066Z,12.33
2023-03-01T07:18:55.146Z,13.67
2023-03-01T07:21:56.806Z,13.00
2023-03-01T07:24:58.245Z,13.83
2023-03-01T07:28:00.015Z,13.07
2023-03-01T07:31:03.144Z,12.93
2023-03-01T07:34:04.528Z,13.83
2023-03-01T07:37:06.015Z,13.87
2023-03-01T07:40:08.391Z,13.73
2023-03-01T07:43:09.800Z,13.33
2023-03-01T07:46:11.287Z,12.73
2023-03-01T07:49:12.787Z,12.90
2023-03-01T07:52:14.183Z,12.43
2023-03-01T07:55:17.002Z,12.63
2023-03-01T07:58:18.465Z,13.00
2023-03-01T08:01:21.558Z,13.40
2023-03-01T08:04:24.100Z,13.30
2023-03-01T08:07:25.493Z,14.07
2023-03-01T08:10:27.007Z,13.33
2023-03-01T08:13:29.512Z,13.27
2023-03-01T08:16:31.383Z,13.33
2023-03-01T08:19:34.085Z,15.47
2023-03-01T08:22:35.522Z,13.50
2023-03-01T08:25:37.235Z,15.10
2023-03-01T08:28:39.571Z,13.63
2023-03-01T08:31:41.948Z,13.23
2023-03-01T08:34:43.382Z,14.07
2023-03-01T08:37:44.861Z,14.30
2023-03-01T08:40:46.288Z,14.03
2023-03-01T08:43:48.092Z,13.70
2023-03-01T08:46:50.926Z,14.23
2023-03-01T08:49:52.454Z,14.53
2023-03-01T08:52:53.838Z,13.57
2023-03-01T08:55:55.293Z,13.63
2023-03-01T08:58:56.662Z,15.03
2023-03-01T09:01:58.112Z,14.80
2023-03-01T09:04:59.573Z,14.30
2023-03-01T09:08:01.124Z,14.17
2023-03-01T09:11:07.633Z,14.37
2023-03-01T09:14:09.051Z,15.37
2023-03-01T09:17:10.546Z,15.50
2023-03-01T09:20:12.133Z,14.77
2023-03-01T09:23:13.519Z,14.90
2023-03-01T09:26:20.506Z,15.17
2023-03-01T09:29:22.736Z,14.20
2023-03-01T09:32:24.309Z,14.43
2023-03-01T09:35:25.854Z,15.53
2023-03-01T09:38:27.829Z,15.17
2023-03-01T09:41:47.477Z,14.73
2023-03-01T09:45:04.257Z,14.93
2023-03-01T09:48:13.586Z,15.23
2023-03-01T09:51:20.330Z,15.53
2023-03-01T09:54:21.821Z,14.87
2023-03-01T09:57:46.791Z,15.03
2023-03-01T10:00:50.593Z,15.50
2023-03-01T10:04:19.743Z,15.53
2023-03-01T10:07:29.095Z,15.43
2023-03-01T10:10:37.272Z,14.83
2023-03-01T10:13:49.998Z,14.77
2023-03-01T10:17:03.767Z,15.67
2023-03-01T10:20:39.561Z,15.93
2023-03-01T10:23:40.988Z,15.17
2023-03-01T10:26:49.251Z,15.43
2023-03-01T10:30:17.356Z,15.00
2023-03-01T10:33:23.030Z,14.23
2023-03-01T10:36:24.897Z,14.33
2023-03-01T10:39:27.660Z,14.73
2023-03-01T10:42:32.675Z,14.90
2023-03-01T10:45:37.300Z,14.70
2023-03-01T10:48:38.667Z,14.67
2023-03-01T10:51:45.664Z,15.10
2023-03-01T10:55:02.911Z,14.50
2023-03-01T10:58:18.104Z,15.13
2023-03-01T11:01:19.471Z,14.60
2023-03-01T11:04:20.913Z,15.00
2023-03-01T11:07:22.330Z,14.97
2023-03-01T11:10:33.151Z,14.00
2023-03-01T11:13:37.433Z,15.57
2023-03-01T11:16:41.951Z,14.47
2023-03-01T11:19:46.907Z,14.90
2023-03-01T11:22:56.192Z,13.60
2023-03-01T11:26:02.838Z,13.53
2023-03-01T11:29:08.125Z,13.13
2023-03-01T11:32:14.213Z,13.90
2023-03-01T11:35:23.667Z,13.53
2023-03-01T11:38:27.780Z,13.87
2023-03-01T11:41:36.160Z,13.27
2023-03-01T11:44:40.070Z,13.27
2023-03-01T11:48:12.797Z,14.30
2023-03-01T11:51:23.541Z,13.93
2023-03-01T11:54:41.834Z,13.40
2023-03-01T11:58:42.042Z,13.27
2023-03-01T12:01:49.258Z,13.37
2023-03-01T12:04:59.348Z,12.73
2023-03-01T12:08:09.227Z,13.40
2023-03-01T12:11:15.539Z,11.83
2023-03-01T12:14:23.053Z,12.70
2023-03-01T12:17:45.543Z,12.67
2023-03-01T12:21:05.799Z,12.83
2023-03-01T12:24:32.161Z,13.80
2023-03-01T12:28:09.774Z,13.17
2023-03-01T12:31:31.272Z,12.70
2023-03-01T12:35:10.118Z,13.27
2023-03-01T12:38:26.611Z,13.47
2023-03-01T12:41:49.283Z,13.73
2023-03-01T12:45:01.618Z,12.87
2023-03-01T12:48:40.852Z,13.33
2023-03-01T12:51:57.633Z,12.40
2023-03-01T12:55:03.523Z,12.17
2023-03-01T12:58:25.673Z,11.37
2023-03-01T13:01:52.574Z,11.43
2023-03-01T13:05:12.798Z,11.63
2023-03-01T13:08:23.178Z,11.70
2023-03-01T13:11:24.993Z,11.17
2023-03-01T13:14:26.317Z,12.47
2023-03-01T13:17:32.631Z,12.13
2023-03-01T13:20:42.907Z,11.97
2023-03-01T13:23:48.813Z,12.43
2023-03-01T13:27:08.388Z,11.77
2023-03-01T13:30:34.647Z,11.70
2023-03-01T13:33:50.286Z,13.30
2023-03-01T13:36:52.003Z,11.67
2023-03-01T13:39:53.800Z,11.00
2023-03-01T13:43:05.287Z,11.40
2023-03-01T13:46:17.663Z,12.20
2023-03-01T13:49:27.338Z,11.13
2023-03-01T13:52:43.076Z,10.43
2023-03-01T13:55:58.704Z,11.63
2023-03-01T13:59:13.549Z,12.00
2023-03-01T14:02:16.290Z,10.37
2023-03-01T14:05:17.687Z,11.23
2023-03-01T14:08:25.088Z,11.90
2023-03-01T14:11:29.540Z,12.57
2023-03-01T14:14:39.971Z,11.73
2023-03-01T14:17:56.852Z,11.23
2023-03-01T14:20:58.368Z,11.10
2023-03-01T14:24:00.216Z,10.83
2023-03-01T14:27:02.768Z,11.43
2023-03-01T14:30:15.988Z,11.23
2023-03-01T14:33:26.404Z,10.23
2023-03-01T14:36:31.128Z,10.60
2023-03-01T14:39:33.094Z,10.73
2023-03-01T14:42:37.653Z,12.03
2023-03-01T14:45:39.227Z,10.73
2023-03-01T14:48:40.816Z,10.37
2023-03-01T14:51:44.250Z,10.83
2023-03-01T14:54:49.279Z,11.10
2023-03-01T14:57:51.996Z,11.57
2023-03-01T15:00:56.251Z,11.13
2023-03-01T15:03:58.074Z,10.80
2023-03-01T15:07:05.736Z,10.43
2023-03-01T15:10:16.526Z,11.23
2023-03-01T15:13:27.428Z,10.53
2023-03-01T15:16:34.659Z,11.20
2023-03-01T15:19:36.359Z,10.57
2023-03-01T15:22:37.854Z,10.77
2023-03-01T15:25:45.540Z,10.83
2023-03-01T15:28:51.460Z,10.90
2023-03-01T15:32:00.253Z,10.70
2023-03-01T15:35:22.677Z,11.40
2023-03-01T15:38:32.720Z,12.00
2023-03-01T15:41:47.461Z,11.53
2023-03-01T15:44:48.879Z,11.50
2023-03-01T15:47:52.879Z,12.17
2023-03-01T15:50:59.231Z,12.30
2023-03-01T15:54:04.564Z,11.40
2023-03-01T15:57:05.986Z,10.67
2023-03-01T16:00:12.306Z,11.03
2023-03-01T16:03:13.752Z,11.10
2023-03-01T16:06:15.232Z,10.70
2023-03-01T16:09:16.711Z,10.80
2023-03-01T16:12:18.146Z,11.10
2023-03-01T16:15:25.262Z,12.13
2023-03-01T16:18:26.845Z,11.50
2023-03-01T16:21:28.259Z,10.90
2023-03-01T16:24:29.632Z,11.37
2023-03-01T16:27:31.008Z,10.53
2023-03-01T16:30:32.592Z,10.50
2023-03-01T16:33:34.860Z,11.00
2023-03-01T16:36:37.553Z,11.23
2023-03-01T16:39:39.572Z,10.67
2023-03-01T16:42:41.606Z,11.30
2023-03-01T16:45:45.507Z,11.27
2023-03-01T16:48:47.858Z,11.67
2023-03-01T16:51:49.367Z,10.90
2023-03-01T16:54:50.768Z,10.63
2023-03-01T16:57:52.191Z,11.50
2023-03-01T17:00:55.025Z,10.97
2023-03-01T17:03:56.926Z,9.90
2023-03-01T17:06:58.443Z,10.67
2023-03-01T17:10:04.374Z,11.30
2023-03-01T17:13:05.759Z,9.90
2023-03-01T17:16:10.410Z,10.73
2023-03-01T17:19:12.063Z,10.47
2023-03-01T17:22:13.988Z,10.50
2023-03-01T17:25:15.754Z,10.57
2023-03-01T17:28:17.250Z,10.70
2023-03-01T17:31:19.971Z,10.30
2023-03-01T17:34:21.484Z,10.90
2023-03-01T17:37:23.043Z,10.77
2023-03-01T17:40:24.409Z,10.70
2023-03-01T17:43:25.889Z,17.07
2023-03-01T17:46:27.387Z,16.10
2023-03-01T17:49:29.136Z,15.20
2023-03-01T17:52:31.199Z,13.63
2023-03-01T17:55:32.578Z,12.67
2023-03-01T17:58:34.298Z,13.77
2023-03-01T18:01:36.104Z,14.40
2023-03-01T18:04:37.537Z,13.20
2023-03-01T18:07:39.090Z,19.13
2023-03-01T18:10:40.604Z,34.23
2023-03-01T18:13:42.000Z,17.33
2023-03-01T18:16:43.553Z,13.57
2023-03-01T18:19:45.307Z,13.87
2023-03-01T18:22:47.544Z,11.90
2023-03-01T18:25:49.102Z,12.47
2023-03-01T18:28:52.566Z,11.67
2023-03-01T18:31:54.155Z,23.63
2023-03-01T18:34:55.579Z,27.40
2023-03-01T18:37:57.461Z,17.70
2023-03-01T18:40:59.172Z,18.47
2023-03-01T18:44:02.650Z,16.50
2023-03-01T18:47:04.210Z,17.47
2023-03-01T18:50:06.209Z,22.57
2023-03-01T18:53:08.059Z,21.53
2023-03-01T18:56:10.577Z,15.63
2023-03-01T18:59:12.655Z,11.43
2023-03-01T19:02:15.485Z,16.67
2023-03-01T19:05:17.563Z,12.67
2023-03-01T19:08:18.985Z,12.90
2023-03-01T19:11:21.776Z,11.40
2023-03-01T19:14:23.204Z,11.17
2023-03-01T19:17:30.336Z,10.70
2023-03-01T19:20:31.739Z,12.10
2023-03-01T19:23:36.603Z,10.77
2023-03-01T19:26:38.055Z,12.17
2023-03-01T19:29:39.789Z,10.33
2023-03-01T19:32:41.478Z,11.17
2023-03-01T19:35:42.922Z,11.53
2023-03-01T19:38:44.412Z,13.27
2023-03-01T19:41:48.216Z,12.50
2023-03-01T19:44:51.105Z,12.43
2023-03-01T19:47:52.535Z,13.30
2023-03-01T19:50:54.075Z,12.03
2023-03-01T19:53:55.940Z,11.10
2023-03-01T19:56:57.483Z,11.93
2023-03-01T19:59:59.364Z,12.13
2023-03-01T20:03:01.096Z,12.33
2023-03-01T20:06:10.605Z,12.03
2023-03-01T20:09:21.463Z,14.10
2023-03-01T20:12:23.722Z,12.73
2023-03-01T20:15:25.360Z,12.00
2023-03-01T20:18:27.238Z,12.67
2023-03-01T20:21:28.777Z,12.30
2023-03-01T20:24:33.307Z,11.87
2023-03-01T20:27:34.775Z,12.23
2023-03-01T20:30:37.739Z,12.20
2023-03-01T20:33:39.823Z,12.77
2023-03-01T20:36:42.683Z,12.33
2023-03-01T20:39:44.088Z,12.50
2023-03-01T20:42:45.464Z,12.40
2023-03-01T20:45:46.906Z,12.37
2023-03-01T20:48:48.356Z,12.33
2023-03-01T20:51:49.770Z,12.93
2023-03-01T20:54:51.243Z,13.30
2023-03-01T20:57:52.707Z,13.43
2023-03-01T21:00:54.132Z,13.37
2023-03-01T21:03:55.908Z,12.67
2023-03-01T21:06:57.428Z,13.47
2023-03-01T21:09:59.018Z,12.87
2023-03-01T21:13:00.411Z,12.63
2023-03-01T21:16:07.967Z,13.03
2023-03-01T21:19:09.492Z,12.63
2023-03-01T21:22:12.659Z,12.80
2023-03-01T21:25:14.103Z,13.47
2023-03-01T21:28:15.566Z,15.20
2023-03-01T21:31:19.860Z,16.93
2023-03-01T21:34:21.275Z,19.87
2023-03-01T21:37:28.341Z,30.13
2023-03-01T21:40:29.774Z,40.93
2023-03-01T21:43:31.205Z,21.57
2023-03-01T21:46:36.455Z,13.67
2023-03-01T21:49:38.035Z,12.57
2023-03-01T21:52:39.480Z,12.80
2023-03-01T21:55:47.455Z,13.47
2023-03-01T21:58:49.697Z,12.43
2023-03-01T22:01:51.774Z,13.03
2023-03-01T22:04:57.335Z,13.70
2023-03-01T22:07:58.794Z,13.27
2023-03-01T22:11:02.235Z,14.50
2023-03-01T22:14:04.701Z,14.17
2023-03-01T22:17:06.219Z,13.93
2023-03-01T22:20:08.270Z,13.53
2023-03-01T22:23:09.699Z,13.67
2023-03-01T22:26:27.766Z,13.33
2023-03-01T22:29:29.590Z,13.40
2023-03-01T22:32:31.209Z,13.33
2023-03-01T22:35:32.691Z,13.53
2023-03-01T22:38:34.174Z,11.93
2023-03-01T22:41:43.012Z,12.47
2023-03-01T22:44:44.536Z,13.53
2023-03-01T22:47:45.946Z,13.37
2023-03-01T22:50:48.486Z,13.73
2023-03-01T22:53:50.575Z,13.17
2023-03-01T22:56:51.963Z,12.87
2023-03-01T22:59:53.344Z,12.93
2023-03-01T23:02:54.801Z,15.30
2023-03-01T23:05:56.279Z,13.40
2023-03-01T23:09:00.320Z,12.93
2023-03-01T23:12:06.490Z,12.50
2023-03-01T23:15:08.949Z,12.93
2023-03-01T23:18:10.951Z,12.83
2023-03-01T23:21:14.769Z,12.90
2023-03-01T23:24:18.196Z,13.00
2023-03-01T23:27:19.639Z,12.83
2023-03-01T23:30:21.592Z,12.73
2023-03-01T23:33:23.100Z,13.50
2023-03-01T23:36:28.469Z,12.57
2023-03-01T23:39:31.982Z,12.53
2023-03-01T23:42:34.129Z,14.27
2023-03-01T23:45:42.976Z,14.53
2023-03-01T23:48:45.526Z,13.90
2023-03-01T23:51:47.783Z,13.30
2023-03-01T23:54:49.213Z,13.00
2023-03-01T23:57:50.633Z,13.23
